Time;durP1;ratioP1;P1;durP2;ratioP2;P2;SDS_P1;SDS_P2;PMS_P1;PMS_P2;Temp;Humidity;BMP_temperature;BMP_pressure;BME280_temperature;BME280_humidity;BME280_pressure;Samples;Min_cycle;Max_cycle;Signal;HPM_P1;HPM_P2
2023/11/24 00:01:18;;;;;;;;;8.75;6.50;;;;;12.72;73.43;101649.28;5101754;27;45441;-59
2023/11/24 00:03:43;;;;;;;;;9.50;6.50;;;;;12.73;73.58;101655.44;5101956;27;45397;-59
2023/11/24 00:06:08;;;;;;;;;7.25;5.00;;;;;12.72;73.42;101640.53;5081335;27;67491;-59
2023/11/24 00:08:35;;;;;;;;;8.25;6.50;;;;;12.73;73.85;101632.66;5097185;27;69908;-59
2023/11/24 00:11:03;;;;;;;;;10.75;6.00;;;;;12.72;73.69;101638.78;5082166;27;45343;-58
2023/11/24 00:13:28;;;;;;;;;7.00;3.75;;;;;12.71;73.88;101629.19;5101921;27;45181;-59
2023/11/24 00:15:54;;;;;;;;;6.00;5.00;;;;;12.67;73.92;101627.50;5086355;27;45567;-58
2023/11/24 00:18:21;;;;;;;;;7.25;5.75;;;;;12.67;73.75;101608.25;5091419;27;45280;-58
2023/11/24 00:20:47;;;;;;;;;12.25;7.50;;;;;12.66;74.10;101604.78;5086164;27;45433;-58
2023/11/24 00:23:12;;;;;;;;;8.75;6.25;;;;;12.65;74.29;101616.19;5102210;27;45292;-58
2023/11/24 00:25:38;;;;;;;;;7.50;7.00;;;;;12.66;74.03;101609.16;5086244;27;45437;-58
2023/11/24 00:28:04;;;;;;;;;11.00;5.25;;;;;12.66;74.61;101609.16;5083027;27;55215;-59
2023/11/24 00:30:29;;;;;;;;;7.00;6.25;;;;;12.66;74.34;101606.53;5088963;27;45219;-58
2023/11/24 00:32:55;;;;;;;;;10.75;7.00;;;;;12.67;74.59;101597.75;5101431;27;45380;-59
2023/11/24 00:35:21;;;;;;;;;7.25;5.25;;;;;12.66;74.67;101589.03;5098412;27;73095;-58
2023/11/24 00:37:46;;;;;;;;;7.50;6.50;;;;;12.68;74.39;101589.84;5096167;27;46960;-58
2023/11/24 00:40:13;;;;;;;;;8.50;7.00;;;;;12.72;74.66;101585.41;5097046;27;45270;-59
2023/11/24 00:42:40;;;;;;;;;6.75;5.25;;;;;12.73;74.43;101576.63;5074305;27;45685;-58
2023/11/24 00:45:07;;;;;;;;;9.75;6.25;;;;;12.74;74.60;101573.09;5064633;27;45952;-59
2023/11/24 00:47:32;;;;;;;;;8.75;7.00;;;;;12.76;74.75;101578.31;5082853;27;46781;-59
2023/11/24 00:49:58;;;;;;;;;9.00;7.25;;;;;12.72;74.76;101569.63;5099715;27;45400;-60
2023/11/24 00:52:26;;;;;;;;;10.50;7.00;;;;;12.77;74.66;101572.19;5099474;27;45855;-59
2023/11/24 00:54:51;;;;;;;;;8.00;5.75;;;;;12.75;74.12;101574.84;5097117;27;45422;-59
2023/11/24 00:57:16;;;;;;;;;7.75;6.75;;;;;12.73;74.39;101566.13;5100721;27;45342;-59
2023/11/24 00:59:42;;;;;;;;;8.75;8.00;;;;;12.73;74.51;101572.22;5057577;27;65506;-59
2023/11/24 01:02:07;;;;;;;;;11.00;6.50;;;;;12.74;74.60;101570.47;5079535;28;45353;-59
2023/11/24 01:04:32;;;;;;;;;9.25;7.00;;;;;12.75;74.58;101573.94;5098703;27;45159;-57
2023/11/24 01:06:58;;;;;;;;;7.50;6.75;;;;;12.73;74.31;101577.50;5097135;27;71832;-59
2023/11/24 01:09:24;;;;;;;;;8.75;6.00;;;;;12.72;74.82;101577.50;5096261;27;65694;-58
2023/11/24 01:11:50;;;;;;;;;10.00;8.00;;;;;12.73;74.76;101571.38;5090778;27;45341;-58
2023/11/24 01:14:16;;;;;;;;;11.25;7.00;;;;;12.71;74.82;101574.03;5098872;27;45584;-58
2023/11/24 01:16:41;;;;;;;;;9.00;7.00;;;;;12.73;74.82;101587.13;5076417;27;62609;-58
2023/11/24 01:19:06;;;;;;;;;8.50;5.50;;;;;12.72;74.80;101578.38;5099766;27;72750;-59
2023/11/24 01:21:33;;;;;;;;;13.00;6.25;;;;;12.73;74.61;101574.00;5082619;27;45357;-59
2023/11/24 01:24:02;;;;;;;;;7.25;6.75;;;;;12.71;74.88;101562.66;5080105;27;46245;-59
2023/11/24 01:26:28;;;;;;;;;10.00;7.00;;;;;12.73;74.66;101568.75;5080529;27;45376;-58
2023/11/24 01:28:54;;;;;;;;;7.75;5.00;;;;;12.72;74.73;101559.13;5074705;27;45306;-59
2023/11/24 01:31:19;;;;;;;;;11.50;7.00;;;;;12.72;75.44;101553.88;5062620;28;45430;-59
2023/11/24 01:33:44;;;;;;;;;10.25;6.00;;;;;12.70;75.58;101556.53;5090191;27;67305;-58
2023/11/24 01:36:09;;;;;;;;;7.75;6.00;;;;;12.67;75.37;101551.34;5074604;27;67634;-58
2023/11/24 01:38:35;;;;;;;;;7.25;5.50;;;;;12.64;75.34;101538.31;5075471;28;73306;-59
2023/11/24 01:41:00;;;;;;;;;8.75;6.00;;;;;12.64;75.88;101537.41;5089297;27;64770;-58
2023/11/24 01:43:26;;;;;;;;;8.00;7.50;;;;;12.62;76.19;101536.59;5078623;27;45419;-59
2023/11/24 01:45:51;;;;;;;;;11.75;6.75;;;;;12.61;76.01;101538.38;5080233;27;46108;-58
2023/11/24 01:48:17;;;;;;;;;8.00;5.00;;;;;12.63;76.15;101538.34;5076721;27;45444;-61
2023/11/24 01:50:43;;;;;;;;;8.25;7.00;;;;;12.65;76.39;101526.03;5078296;27;45361;-58
2023/11/24 01:53:09;;;;;;;;;9.25;7.75;;;;;12.67;76.04;101527.72;5074993;28;46196;-58
2023/11/24 01:55:35;;;;;;;;;9.75;9.00;;;;;12.68;75.85;101532.06;5078679;27;75672;-59
2023/11/24 01:58:01;;;;;;;;;10.00;8.00;;;;;12.70;75.92;101537.28;5079734;27;45275;-59
2023/11/24 02:00:26;;;;;;;;;9.25;8.00;;;;;12.70;75.85;101530.28;5092170;27;45298;-58
2023/11/24 02:02:51;;;;;;;;;11.00;8.00;;;;;12.69;76.27;101536.41;5077300;27;73494;-58
2023/11/24 02:05:18;;;;;;;;;10.50;7.50;;;;;12.71;76.16;101541.63;5079947;28;46052;-58
2023/11/24 02:07:44;;;;;;;;;11.50;7.75;;;;;12.70;75.91;101535.53;5066174;27;45359;-59
2023/11/24 02:10:13;;;;;;;;;7.25;6.00;;;;;12.70;75.75;101532.91;5074285;28;45493;-58
2023/11/24 02:12:39;;;;;;;;;9.00;6.25;;;;;12.67;76.15;101535.59;5061562;27;45777;-58
2023/11/24 02:15:06;;;;;;;;;10.25;7.00;;;;;12.70;76.15;101537.28;5083350;27;46362;-58
2023/11/24 02:17:32;;;;;;;;;7.75;6.00;;;;;12.69;76.48;101532.94;5068983;27;45299;-58
2023/11/24 02:19:57;;;;;;;;;8.00;6.00;;;;;12.70;76.33;101534.66;5081725;27;69809;-58
2023/11/24 02:22:24;;;;;;;;;8.00;6.00;;;;;12.68;76.49;101523.34;5082206;27;45461;-59
2023/11/24 02:24:49;;;;;;;;;8.75;8.00;;;;;12.70;76.26;101513.66;5076210;27;46164;-59
2023/11/24 02:27:18;;;;;;;;;12.00;8.25;;;;;12.70;76.54;101513.66;5080598;27;45405;-57
2023/11/24 02:29:44;;;;;;;;;13.00;7.00;;;;;12.68;76.46;101502.34;5082404;27;45448;-58
2023/11/24 02:32:09;;;;;;;;;13.25;7.00;;;;;12.66;76.61;101505.00;5072761;27;45418;-58
2023/11/24 02:34:35;;;;;;;;;8.00;6.00;;;;;12.65;77.04;101497.16;5089701;27;74541;-57
2023/11/24 02:37:01;;;;;;;;;8.75;6.00;;;;;12.66;76.89;101486.59;5071136;28;59938;-58
2023/11/24 02:39:26;;;;;;;;;10.25;6.00;;;;;12.65;77.14;101481.38;5064911;27;45402;-58
2023/11/24 02:41:51;;;;;;;;;7.50;5.50;;;;;12.65;77.09;101474.38;5067704;27;45433;-59
2023/11/24 02:44:17;;;;;;;;;9.50;7.50;;;;;12.65;77.24;101473.50;5071283;27;65250;-59
2023/11/24 02:46:42;;;;;;;;;9.50;7.00;;;;;12.65;77.31;101468.25;5066247;27;45333;-58
2023/11/24 02:49:08;;;;;;;;;8.75;7.00;;;;;12.65;77.57;101457.75;5081214;27;45274;-58
2023/11/24 02:51:33;;;;;;;;;10.25;7.00;;;;;12.65;77.70;101447.25;5077348;27;45214;-57
2023/11/24 02:53:59;;;;;;;;;10.25;7.00;;;;;12.65;77.24;101447.25;5080841;27;46697;-58
2023/11/24 02:56:26;;;;;;;;;8.75;6.00;;;;;12.64;77.50;101451.66;5080091;27;45796;-58
2023/11/24 02:58:51;;;;;;;;;8.25;6.75;;;;;12.63;77.82;101444.66;5077608;28;45338;-58
2023/11/24 03:01:17;;;;;;;;;9.50;8.50;;;;;12.66;77.94;101435.81;5080169;27;45245;-59
2023/11/24 03:03:42;;;;;;;;;5.00;5.00;;;;;12.67;77.53;101443.69;5081314;27;75670;-59
2023/11/24 03:06:08;;;;;;;;;5.75;5.75;;;;;12.67;77.59;101441.06;5076729;27;69088;-59
2023/11/24 03:08:33;;;;;;;;;9.00;6.00;;;;;12.71;77.95;101441.84;5071122;27;45544;-59
2023/11/24 03:11:04;;;;;;;;;9.00;6.50;;;;;12.72;77.55;101428.66;5069765;27;45540;-59
2023/11/24 03:13:30;;;;;;;;;9.50;6.00;;;;;12.73;77.79;101430.41;5077831;28;47473;-59
2023/11/24 03:15:55;;;;;;;;;9.50;7.00;;;;;12.76;77.80;101432.09;5065848;27;49551;-57
2023/11/24 03:18:20;;;;;;;;;12.25;6.50;;;;;12.78;77.87;101424.16;5071764;28;56662;-57
2023/11/24 03:20:47;;;;;;;;;6.75;6.00;;;;;12.81;77.67;101417.06;5078225;27;73258;-57
2023/11/24 03:23:13;;;;;;;;;6.25;6.00;;;;;12.83;77.39;101419.66;5082212;27;50777;-57
2023/11/24 03:25:38;;;;;;;;;8.25;6.75;;;;;12.85;77.41;101417.84;5080248;27;45407;-57
2023/11/24 03:28:03;;;;;;;;;7.75;5.00;;;;;12.87;77.57;101410.78;5072986;27;45410;-57
2023/11/24 03:30:30;;;;;;;;;9.50;6.50;;;;;12.88;77.47;101408.13;5062930;28;45255;-57
2023/11/24 03:32:55;;;;;;;;;7.00;6.00;;;;;12.90;77.00;101400.22;5066188;27;46336;-57
2023/11/24 03:35:20;;;;;;;;;7.50;6.00;;;;;12.91;77.38;101392.31;5084125;27;48045;-59
2023/11/24 03:37:46;;;;;;;;;9.25;5.00;;;;;12.91;77.28;101389.66;5081204;27;69338;-58
2023/11/24 03:40:12;;;;;;;;;9.00;5.50;;;;;12.91;77.15;101391.44;5088417;27;45412;-59
2023/11/24 03:42:38;;;;;;;;;8.00;5.75;;;;;12.88;77.24;101396.78;5099878;27;46316;-59
2023/11/24 03:45:04;;;;;;;;;5.00;5.00;;;;;12.87;77.13;101388.03;5096791;27;71276;-59
2023/11/24 03:47:30;;;;;;;;;8.50;6.00;;;;;12.89;76.96;101387.97;5102498;27;45293;-59
2023/11/24 03:49:56;;;;;;;;;7.50;5.25;;;;;12.90;77.21;101382.69;5100906;27;45276;-59
2023/11/24 03:52:23;;;;;;;;;9.25;5.00;;;;;12.92;77.05;101382.66;5102058;27;48856;-59
2023/11/24 03:54:50;;;;;;;;;10.00;4.50;;;;;12.92;77.53;101369.50;5099276;27;45331;-58
2023/11/24 03:57:15;;;;;;;;;5.00;5.00;;;;;12.91;77.56;101381.78;5100444;27;45328;-59
2023/11/24 03:59:40;;;;;;;;;6.75;5.00;;;;;12.89;77.38;101377.47;5099041;27;72882;-59
2023/11/24 04:02:06;;;;;;;;;8.25;5.00;;;;;12.88;77.44;101370.50;5097625;27;48487;-58
2023/11/24 04:04:31;;;;;;;;;7.75;5.00;;;;;12.84;77.26;101353.97;5100562;27;65488;-58
2023/11/24 04:06:56;;;;;;;;;7.50;6.00;;;;;12.88;77.43;101355.59;5099425;27;70454;-58
2023/11/24 04:09:22;;;;;;;;;5.25;5.25;;;;;12.89;77.54;101361.69;5096510;27;45414;-58
2023/11/24 04:11:47;;;;;;;;;6.25;4.50;;;;;12.89;77.60;101357.34;5090191;27;70379;-58
2023/11/24 04:14:12;;;;;;;;;8.25;3.50;;;;;12.89;77.50;101372.22;5088366;27;45214;-59
2023/11/24 04:16:38;;;;;;;;;7.00;5.00;;;;;12.90;77.39;101377.44;5083613;27;45334;-58
2023/11/24 04:19:04;;;;;;;;;7.75;5.50;;;;;12.92;77.58;101374.75;5088709;27;73014;-58
2023/11/24 04:21:29;;;;;;;;;5.75;5.00;;;;;12.93;77.94;101368.63;5100983;27;46289;-58
2023/11/24 04:23:55;;;;;;;;;8.75;5.50;;;;;12.97;77.59;101358.88;5070147;27;45666;-58
2023/11/24 04:26:20;;;;;;;;;8.75;5.00;;;;;12.99;77.40;101370.22;5082351;27;65142;-59
2023/11/24 04:28:45;;;;;;;;;6.75;6.00;;;;;12.99;77.27;101364.97;5085580;27;72101;-59
2023/11/24 04:31:11;;;;;;;;;7.25;6.25;;;;;12.98;77.40;101365.84;5090177;27;75519;-59
2023/11/24 04:33:36;;;;;;;;;5.00;4.25;;;;;12.96;77.57;101368.53;5087174;27;45366;-59
2023/11/24 04:36:01;;;;;;;;;9.00;6.00;;;;;12.93;77.89;101370.41;5089585;27;45421;-58
2023/11/24 04:38:27;;;;;;;;;7.50;5.25;;;;;12.90;77.31;101366.06;5094933;27;70806;-59
2023/11/24 04:40:53;;;;;;;;;4.25;3.00;;;;;12.90;78.05;101355.56;5090830;27;46297;-59
2023/11/24 04:43:22;;;;;;;;;10.50;5.50;;;;;12.91;78.24;101354.66;5081226;27;45846;-58
2023/11/24 04:45:47;;;;;;;;;9.50;5.75;;;;;12.93;78.11;101350.22;5091073;27;45298;-59
2023/11/24 04:48:12;;;;;;;;;6.75;5.25;;;;;12.94;77.60;101348.47;5103459;27;45528;-58
2023/11/24 04:50:38;;;;;;;;;7.00;5.00;;;;;12.94;77.56;101338.81;5110590;27;58881;-59
2023/11/24 04:53:04;;;;;;;;;7.75;4.25;;;;;12.91;77.75;101342.38;5100110;27;72151;-59
2023/11/24 04:55:29;;;;;;;;;5.25;5.00;;;;;12.88;78.17;101341.59;5082701;27;45433;-59
2023/11/24 04:57:54;;;;;;;;;8.25;6.00;;;;;12.86;78.34;101328.50;5099280;27;71878;-58
2023/11/24 05:00:20;;;;;;;;;7.00;5.00;;;;;12.84;78.11;101316.34;5099922;27;46322;-58
2023/11/24 05:02:46;;;;;;;;;7.25;4.00;;;;;12.80;78.11;101318.19;5078805;27;56561;-58
2023/11/24 05:05:11;;;;;;;;;7.50;6.00;;;;;12.77;78.28;101326.13;5090253;27;45371;-58
2023/11/24 05:07:36;;;;;;;;;5.75;5.00;;;;;12.75;78.44;101329.69;5097740;27;45454;-58
2023/11/24 05:10:05;;;;;;;;;5.75;5.00;;;;;12.76;78.34;101328.81;5100471;27;54402;-58
2023/11/24 05:12:31;;;;;;;;;7.50;6.00;;;;;12.78;78.35;101319.13;5099763;27;45754;-58
2023/11/24 05:14:56;;;;;;;;;7.75;5.00;;;;;12.79;78.17;101323.47;5089188;27;45283;-58
2023/11/24 05:17:22;;;;;;;;;6.25;5.75;;;;;12.82;78.50;101319.00;5070447;27;45303;-59
2023/11/24 05:19:47;;;;;;;;;6.25;6.00;;;;;12.80;78.04;101314.69;5104252;27;72734;-58
2023/11/24 05:22:13;;;;;;;;;8.25;4.75;;;;;12.79;78.63;101305.94;5094808;27;71752;-59
2023/11/24 05:24:39;;;;;;;;;9.00;5.25;;;;;12.80;78.42;101306.78;5092993;27;45446;-58
2023/11/24 05:27:05;;;;;;;;;8.00;6.00;;;;;12.79;78.42;101312.97;5076518;27;45504;-61
2023/11/24 05:29:31;;;;;;;;;4.50;3.75;;;;;12.76;78.16;101307.78;5050268;28;46458;-59
2023/11/24 05:31:56;;;;;;;;;6.75;5.00;;;;;12.72;78.70;101304.38;5096148;27;45452;-58
2023/11/24 05:34:21;;;;;;;;;6.00;5.50;;;;;12.72;78.54;101305.25;5088251;27;65578;-59
2023/11/24 05:36:46;;;;;;;;;5.00;3.25;;;;;12.71;78.71;101300.91;5081332;27;61806;-59
2023/11/24 05:39:12;;;;;;;;;6.75;5.00;;;;;12.74;78.61;101299.94;5090744;27;73813;-58
2023/11/24 05:41:37;;;;;;;;;10.00;6.00;;;;;12.76;78.68;101303.38;5080824;27;64441;-58
2023/11/24 05:44:03;;;;;;;;;7.00;6.00;;;;;12.79;78.60;101302.47;5100840;27;45368;-59
2023/11/24 05:46:29;;;;;;;;;10.75;7.00;;;;;12.75;78.33;101288.56;5075408;27;45418;-59
2023/11/24 05:48:55;;;;;;;;;5.00;5.00;;;;;12.71;78.36;101290.41;5074500;27;45624;-58
2023/11/24 05:51:20;;;;;;;;;12.00;7.00;;;;;12.65;78.66;101279.19;5098670;27;55326;-58
2023/11/24 05:53:45;;;;;;;;;6.75;6.75;;;;;12.64;78.71;101287.97;5098601;27;56538;-58
2023/11/24 05:56:11;;;;;;;;;11.25;7.00;;;;;12.61;78.88;101293.31;5099614;27;45170;-58
2023/11/24 05:58:36;;;;;;;;;5.50;5.50;;;;;12.57;79.22;101281.16;5099416;27;74392;-58
2023/11/24 06:01:01;;;;;;;;;6.00;5.00;;;;;12.52;78.76;101276.91;5097497;27;71088;-59
2023/11/24 06:03:27;;;;;;;;;7.25;6.50;;;;;12.50;79.14;101285.69;5106881;27;45232;-58
2023/11/24 06:05:56;;;;;;;;;7.75;6.00;;;;;12.48;79.19;101274.38;5097837;27;45359;-59
2023/11/24 06:08:21;;;;;;;;;5.75;5.00;;;;;12.46;79.25;101282.28;5061370;28;46432;-58
2023/11/24 06:10:50;;;;;;;;;10.50;7.00;;;;;12.46;79.66;101284.91;5082308;27;45344;-58
2023/11/24 06:13:15;;;;;;;;;8.25;7.00;;;;;12.48;79.83;101288.38;5088688;27;45309;-59
2023/11/24 06:15:41;;;;;;;;;6.50;5.75;;;;;12.51;79.32;101290.06;5086259;27;45562;-59
2023/11/24 06:18:06;;;;;;;;;8.75;7.00;;;;;12.52;79.41;101297.91;5061137;28;73663;-59
2023/11/24 06:20:32;;;;;;;;;9.25;7.75;;;;;12.56;79.72;101300.44;5093451;27;45283;-58
2023/11/24 06:22:57;;;;;;;;;6.25;4.25;;;;;12.59;79.30;101302.97;5070622;28;45325;-58
2023/11/24 06:25:22;;;;;;;;;7.75;6.00;;;;;12.61;79.18;101306.44;5089648;27;46203;-58
2023/11/24 06:27:48;;;;;;;;;9.00;7.25;;;;;12.63;79.13;101297.63;5079087;27;63888;-59
2023/11/24 06:30:13;;;;;;;;;6.75;5.00;;;;;12.66;78.98;101304.53;5092385;27;45230;-58
2023/11/24 06:32:38;;;;;;;;;8.75;6.75;;;;;12.64;79.23;101298.47;5097627;27;45314;-59
2023/11/24 06:35:07;;;;;;;;;7.00;6.75;;;;;12.63;79.50;101307.25;5097180;27;64888;-58
2023/11/24 06:37:33;;;;;;;;;6.75;6.50;;;;;12.64;79.18;101306.34;5094921;27;45331;-59
2023/11/24 06:39:58;;;;;;;;;6.25;4.75;;;;;12.62;78.88;101301.13;5097215;27;45599;-59
2023/11/24 06:42:24;;;;;;;;;9.00;6.50;;;;;12.60;79.21;101302.94;5098556;27;45476;-60
2023/11/24 06:44:49;;;;;;;;;8.00;6.75;;;;;12.60;78.73;101304.72;5080086;27;45580;-59
2023/11/24 06:47:14;;;;;;;;;5.00;4.75;;;;;12.57;78.60;101300.41;5080762;27;54905;-61
2023/11/24 06:49:39;;;;;;;;;8.00;6.50;;;;;12.57;78.42;101292.53;5097485;27;55677;-59
2023/11/24 06:52:06;;;;;;;;;5.25;4.00;;;;;12.56;78.53;101290.81;5065005;27;45318;-59
2023/11/24 06:54:32;;;;;;;;;8.50;5.00;;;;;12.56;78.04;101288.19;5078642;27;45263;-58
2023/11/24 06:56:58;;;;;;;;;9.00;5.00;;;;;12.53;77.34;101291.72;5100947;27;46177;-59
2023/11/24 06:59:23;;;;;;;;;7.00;5.00;;;;;12.51;77.23;101295.31;5099660;27;73819;-57
2023/11/24 07:01:49;;;;;;;;;7.00;4.00;;;;;12.50;77.22;101297.09;5100513;27;45455;-58
2023/11/24 07:04:16;;;;;;;;;46.25;34.50;;;;;12.48;76.62;101287.50;5096989;27;45347;-59
2023/11/24 07:06:41;;;;;;;;;7.00;4.00;;;;;12.47;76.29;101284.03;5084395;27;47141;-58
2023/11/24 07:09:07;;;;;;;;;4.75;2.50;;;;;12.42;75.94;101287.69;5096138;27;45753;-59
2023/11/24 07:11:32;;;;;;;;;4.75;3.75;;;;;12.41;76.04;101286.81;5078553;28;45465;-58
2023/11/24 07:13:57;;;;;;;;;4.25;3.75;;;;;12.37;75.15;101293.03;5084093;27;70933;-58
2023/11/24 07:16:23;;;;;;;;;6.75;2.50;;;;;12.34;74.95;101287.84;5095261;27;76067;-59
2023/11/24 07:18:48;;;;;;;;;4.00;2.50;;;;;12.31;74.60;101282.72;5096494;27;50535;-59
2023/11/24 07:21:15;;;;;;;;;2.00;2.00;;;;;12.29;74.13;101300.25;5083390;27;69219;-60
2023/11/24 07:23:41;;;;;;;;;4.00;2.00;;;;;12.26;73.69;101285.44;5097233;27;45160;-64
2023/11/24 07:26:07;;;;;;;;;7.50;2.00;;;;;12.27;73.24;101299.41;5090440;27;45553;-59
2023/11/24 07:28:35;;;;;;;;;6.75;3.25;;;;;12.23;72.38;101300.41;5100005;27;45279;-59
2023/11/24 07:31:00;;;;;;;;;5.50;2.00;;;;;12.20;72.88;101309.22;5066371;28;45547;-59
2023/11/24 07:33:27;;;;;;;;;3.25;2.00;;;;;12.15;71.44;101314.56;5083857;27;72964;-59
2023/11/24 07:35:53;;;;;;;;;5.00;1.50;;;;;12.10;71.23;101319.06;5093136;27;45467;-58
2023/11/24 07:38:18;;;;;;;;;2.75;2.75;;;;;12.09;71.37;101314.72;5066498;27;45462;-59
2023/11/24 07:40:43;;;;;;;;;5.00;3.00;;;;;12.10;71.17;101310.34;5083202;27;62518;-58
2023/11/24 07:43:08;;;;;;;;;6.75;2.50;;;;;12.11;71.28;101312.03;5101437;27;68644;-58
2023/11/24 07:45:34;;;;;;;;;8.00;4.00;;;;;12.13;70.79;101312.91;5075896;28;47875;-58
2023/11/24 07:48:00;;;;;;;;;2.50;1.25;;;;;12.14;70.56;101311.97;5065316;27;45293;-58
2023/11/24 07:50:26;;;;;;;;;3.00;2.75;;;;;12.10;69.46;101305.09;5067358;27;67025;-58
2023/11/24 07:52:51;;;;;;;;;4.50;3.00;;;;;12.08;69.51;101304.28;5082484;27;45222;-58
2023/11/24 07:55:17;;;;;;;;;3.50;2.25;;;;;12.06;68.61;101306.94;5082871;27;47333;-58
2023/11/24 07:57:42;;;;;;;;;6.75;1.00;;;;;12.04;68.41;101311.34;5065010;27;72094;-59
2023/11/24 08:00:12;;;;;;;;;2.25;2.00;;;;;12.03;68.09;101311.38;5054433;27;67942;-59
2023/11/24 08:02:41;;;;;;;;;3.00;3.00;;;;;12.02;67.94;101309.66;5069049;27;45428;-59
2023/11/24 08:05:08;;;;;;;;;6.00;4.00;;;;;12.02;67.11;101314.88;5099451;27;46837;-60
2023/11/24 08:07:33;;;;;;;;;7.25;3.25;;;;;12.03;67.61;101309.63;5099627;27;46013;-60
2023/11/24 08:09:58;;;;;;;;;6.00;2.75;;;;;12.03;66.75;101319.25;5100735;27;68197;-59
2023/11/24 08:12:24;;;;;;;;;3.25;2.50;;;;;12.04;66.75;101324.47;5101275;27;56484;-59
2023/11/24 08:14:50;;;;;;;;;6.50;5.00;;;;;12.08;66.75;101325.25;5088764;27;68058;-59
2023/11/24 08:17:15;;;;;;;;;11.75;4.00;;;;;12.11;66.43;101317.28;5112850;27;45307;-58
2023/11/24 08:19:41;;;;;;;;;5.00;3.00;;;;;12.13;65.93;101321.63;5071601;27;45399;-59
2023/11/24 08:22:06;;;;;;;;;6.50;2.75;;;;;12.14;65.86;101319.84;5084808;27;69421;-58
2023/11/24 08:24:31;;;;;;;;;6.00;3.50;;;;;12.11;65.75;101307.69;5093650;27;75724;-58
2023/11/24 08:26:57;;;;;;;;;3.25;3.25;;;;;12.11;65.68;101317.28;5082364;27;45433;-59
2023/11/24 08:29:22;;;;;;;;;4.75;2.25;;;;;12.10;65.22;101312.97;5083039;27;45507;-57
2023/11/24 08:31:48;;;;;;;;;1.50;1.50;;;;;12.10;65.08;101298.06;5095033;27;45481;-58
2023/11/24 08:34:15;;;;;;;;;4.25;3.00;;;;;12.14;65.62;101310.22;5081719;27;45457;-58
2023/11/24 08:36:41;;;;;;;;;3.00;2.00;;;;;12.17;65.47;101305.81;5088404;27;45705;-59
2023/11/24 08:39:12;;;;;;;;;6.50;2.50;;;;;12.21;64.42;101310.06;5095234;27;45326;-58
2023/11/24 08:41:38;;;;;;;;;5.00;3.00;;;;;12.17;64.47;101303.19;5091996;27;45334;-58
2023/11/24 08:44:04;;;;;;;;;5.00;2.00;;;;;12.15;64.03;101305.84;5089667;27;45373;-59
2023/11/24 08:46:29;;;;;;;;;2.50;2.00;;;;;12.13;64.25;101311.13;5088601;27;45166;-58
2023/11/24 08:48:55;;;;;;;;;4.00;3.00;;;;;12.11;63.30;101312.94;5113254;27;45241;-58
2023/11/24 08:51:20;;;;;;;;;7.25;3.00;;;;;12.09;62.93;101314.72;5096873;27;55747;-58
2023/11/24 08:53:46;;;;;;;;;2.00;1.00;;;;;12.03;62.87;101299.13;5083016;27;46047;-59
2023/11/24 08:56:11;;;;;;;;;4.00;2.75;;;;;12.00;63.27;101299.19;5096136;27;72203;-59
2023/11/24 08:58:37;;;;;;;;;2.00;0.00;;;;;12.02;63.16;101304.41;5082706;27;53975;-58
2023/11/24 09:01:02;;;;;;;;;2.75;1.00;;;;;12.05;63.28;101292.06;5101020;27;45350;-59
2023/11/24 09:03:28;;;;;;;;;5.00;2.00;;;;;12.10;62.80;101297.22;5082572;27;46985;-59
2023/11/24 09:05:56;;;;;;;;;5.25;2.00;;;;;12.12;62.76;101293.63;5097047;27;73330;-59
2023/11/24 09:08:22;;;;;;;;;3.00;2.00;;;;;12.12;61.73;101305.91;5083404;27;45319;-58
2023/11/24 09:10:47;;;;;;;;;7.75;3.25;;;;;12.08;61.52;101305.13;5098176;27;73121;-58
2023/11/24 09:13:13;;;;;;;;;2.25;1.00;;;;;12.07;61.66;101294.66;5089332;27;45930;-58
2023/11/24 09:15:42;;;;;;;;;5.25;3.25;;;;;12.09;61.90;101303.34;5088035;27;45498;-58
2023/11/24 09:18:07;;;;;;;;;4.75;2.75;;;;;12.13;61.53;101294.53;5080596;27;45326;-59
2023/11/24 09:20:33;;;;;;;;;8.50;3.25;;;;;12.16;61.85;101294.44;5082688;27;63505;-59
2023/11/24 09:22:58;;;;;;;;;6.00;2.75;;;;;12.19;62.03;101285.63;5091306;27;45423;-57
2023/11/24 09:25:24;;;;;;;;;3.50;2.00;;;;;12.18;62.18;101279.50;5107535;27;45478;-58
2023/11/24 09:27:49;;;;;;;;;3.75;3.00;;;;;12.18;61.94;101281.28;5089457;27;45221;-59
2023/11/24 09:30:15;;;;;;;;;5.25;1.75;;;;;12.17;61.69;101279.56;5095615;27;45330;-59
2023/11/24 09:32:42;;;;;;;;;3.75;2.00;;;;;12.20;61.70;101282.97;5091253;27;65203;-62
2023/11/24 09:35:08;;;;;;;;;7.50;3.00;;;;;12.23;61.29;101284.66;5086512;27;45697;-59
2023/11/24 09:37:35;;;;;;;;;4.50;4.50;;;;;12.29;61.57;101279.25;5094828;27;45409;-58
2023/11/24 09:40:01;;;;;;;;;7.75;4.00;;;;;12.33;60.66;101286.16;5085318;27;53977;-59
2023/11/24 09:42:35;;;;;;;;;3.75;2.00;;;;;12.35;60.89;101285.19;5093591;27;45494;-59
2023/11/24 09:45:06;;;;;;;;;6.75;2.25;;;;;12.39;59.58;101291.22;5094900;27;45289;-58
2023/11/24 09:47:31;;;;;;;;;5.00;2.25;;;;;12.38;59.24;101286.91;5090032;27;45500;-59
2023/11/24 09:49:58;;;;;;;;;4.75;2.00;;;;;12.38;59.33;101300.03;5070438;27;73066;-58
2023/11/24 09:52:27;;;;;;;;;3.25;2.75;;;;;12.38;58.71;101286.91;5075450;27;46249;-58
2023/11/24 09:54:55;;;;;;;;;3.75;2.50;;;;;12.39;58.91;101296.47;5072099;27;45773;-59
2023/11/24 09:57:20;;;;;;;;;5.75;2.00;;;;;12.38;58.18;101300.03;5074522;28;45391;-59
2023/11/24 09:59:46;;;;;;;;;2.00;2.00;;;;;12.36;58.31;101291.31;5096099;27;46239;-59
2023/11/24 10:02:17;;;;;;;;;3.00;2.00;;;;;12.38;58.36;101291.25;5070871;27;46701;-58
2023/11/24 10:04:43;;;;;;;;;4.00;2.00;;;;;12.45;58.44;101290.22;5098268;27;45295;-59
2023/11/24 10:07:22;;;;;;;;;4.75;3.00;;;;;12.49;58.36;101276.13;5082310;27;45297;-59
2023/11/24 10:09:48;;;;;;;;;2.25;0.75;;;;;12.53;57.98;101265.47;5099070;27;45603;-59
2023/11/24 10:12:17;;;;;;;;;2.00;2.00;;;;;12.55;56.68;101273.31;5070985;28;45373;-59
2023/11/24 10:14:43;;;;;;;;;1.50;1.00;;;;;12.54;56.87;101266.34;5076576;27;45248;-57
2023/11/24 10:17:09;;;;;;;;;7.00;5.00;;;;;12.57;56.95;101268.03;5082156;27;45486;-58
2023/11/24 10:19:38;;;;;;;;;4.00;3.50;;;;;12.61;56.48;101260.03;5087318;27;48559;-58
2023/11/24 10:22:03;;;;;;;;;3.25;1.50;;;;;12.64;55.70;101269.59;5087507;27;70517;-58
2023/11/24 10:24:32;;;;;;;;;5.75;3.00;;;;;12.64;55.70;101262.59;5099493;27;52047;-58
2023/11/24 10:27:16;;;;;;;;;4.50;1.00;;;;;12.58;54.69;101268.00;5079188;27;45377;-58
2023/11/24 10:29:42;;;;;;;;;4.75;3.00;;;;;12.51;54.94;101254.16;5100019;27;45332;-58
2023/11/24 10:32:07;;;;;;;;;5.50;5.50;;;;;12.49;55.25;101245.47;5090574;27;65679;-58
2023/11/24 10:34:32;;;;;;;;;7.00;2.75;;;;;12.56;55.61;101248.78;5102084;27;52746;-57
2023/11/24 10:36:59;;;;;;;;;3.75;2.75;;;;;12.56;54.88;101237.44;5099672;27;52354;-59
2023/11/24 10:39:25;;;;;;;;;6.25;3.75;;;;;12.53;55.29;101252.34;5080428;27;45503;-58
2023/11/24 10:41:51;;;;;;;;;5.25;2.25;;;;;12.53;54.82;101241.84;5071675;27;45505;-58
2023/11/24 10:44:17;;;;;;;;;7.25;4.00;;;;;12.54;55.06;101233.09;5076141;27;45396;-58
2023/11/24 10:46:45;;;;;;;;;4.00;3.25;;;;;12.53;55.26;101227.88;5074620;27;69433;-59
2023/11/24 10:49:16;;;;;;;;;4.25;3.75;;;;;12.58;54.74;101218.09;5080173;27;45532;-58
2023/11/24 10:51:52;;;;;;;;;5.00;5.00;;;;;12.58;54.76;101212.84;5065208;27;46448;-58
2023/11/24 10:54:34;;;;;;;;;8.25;5.00;;;;;12.60;54.71;101231.19;5066239;28;45469;-58
2023/11/24 10:57:02;;;;;;;;;10.50;4.50;;;;;12.58;54.54;101207.59;5094871;27;45473;-58
2023/11/24 10:59:28;;;;;;;;;5.50;3.75;;;;;12.58;54.68;101206.75;5097816;27;45463;-58
2023/11/24 11:01:55;;;;;;;;;6.75;1.75;;;;;12.62;54.83;101201.34;5102749;27;46104;-57
2023/11/24 11:04:22;;;;;;;;;7.25;3.25;;;;;12.61;54.45;101199.66;5102825;27;45930;-58
2023/11/24 11:06:50;;;;;;;;;6.00;4.25;;;;;12.62;54.79;101203.97;5063749;27;45310;-58
2023/11/24 11:11:45;;;;;;;;;4.25;3.75;;;;;12.72;54.51;101187.06;5079029;27;46142;-58
2023/11/24 11:14:13;;;;;;;;;8.00;4.00;;;;;12.78;54.13;101180.75;5105601;27;45212;-59
2023/11/24 11:16:38;;;;;;;;;3.50;1.00;;;;;12.83;54.10;101181.50;5094246;27;45335;-59
2023/11/24 11:19:32;;;;;;;;;10.00;5.00;;;;;12.86;54.32;101176.16;5099053;27;45516;-59
2023/11/24 11:22:00;;;;;;;;;5.25;3.50;;;;;12.80;53.29;101173.72;5092644;27;45250;-59